Time;durP1;ratioP1;P1;durP2;ratioP2;P2;SDS_P1;SDS_P2;PMS_P1;PMS_P2;Temp;Humidity;BMP_temperature;BMP_pressure;BME280_temperature;BME280_humidity;BME280_pressure;Samples;Min_cycle;Max_cycle;Signal;HPM_P1;HPM_P2
2023/05/09 00:00:45;;;;;;;14.03;8.47;;;15.60;99.90;;;;;;7289658;19;20191;-78
2023/05/09 00:03:11;;;;;;;17.20;9.07;;;15.80;99.90;;;;;;7290318;19;20236;-79
2023/05/09 00:05:37;;;;;;;14.13;8.33;;;15.90;99.90;;;;;;7287892;19;20537;-78
2023/05/09 00:08:03;;;;;;;12.60;7.90;;;15.90;99.90;;;;;;7289748;19;20267;-78
2023/05/09 00:10:29;;;;;;;17.67;8.40;;;15.80;99.90;;;;;;7310519;19;20614;-78
2023/05/09 00:12:56;;;;;;;14.40;8.47;;;15.80;99.90;;;;;;7290403;19;20195;-78
2023/05/09 00:15:22;;;;;;;13.97;8.97;;;16.00;99.90;;;;;;7289803;19;20210;-78
2023/05/09 00:17:49;;;;;;;13.93;8.60;;;16.00;99.90;;;;;;7288515;19;20199;-78
2023/05/09 00:20:15;;;;;;;13.10;7.90;;;16.10;99.90;;;;;;7288906;19;20658;-78
2023/05/09 00:22:41;;;;;;;15.03;8.27;;;16.10;99.90;;;;;;7288718;19;20199;-78
2023/05/09 00:25:10;;;;;;;13.03;8.60;;;16.00;99.90;;;;;;7288292;19;20651;-78
2023/05/09 00:27:36;;;;;;;13.03;7.97;;;15.90;99.90;;;;;;7290356;19;20204;-78
2023/05/09 00:30:04;;;;;;;13.50;8.37;;;15.90;99.90;;;;;;7300464;19;20191;-78
2023/05/09 00:32:31;;;;;;;14.27;8.23;;;15.80;99.90;;;;;;7310492;19;20268;-78
2023/05/09 00:34:57;;;;;;;12.87;8.07;;;15.90;99.90;;;;;;7289229;19;20186;-78
2023/05/09 00:37:23;;;;;;;14.60;8.33;;;16.00;99.90;;;;;;7289722;19;20578;-78
2023/05/09 00:39:49;;;;;;;16.10;8.67;;;16.00;99.90;;;;;;7288482;19;20552;-78
2023/05/09 00:42:15;;;;;;;14.03;8.20;;;16.00;99.90;;;;;;7289012;19;20193;-78
2023/05/09 00:44:41;;;;;;;16.90;9.77;;;16.10;99.90;;;;;;7288387;19;20206;-78
2023/05/09 00:47:07;;;;;;;14.57;8.70;;;16.10;99.90;;;;;;7288263;19;20189;-79
2023/05/09 00:49:33;;;;;;;15.10;8.10;;;16.00;99.90;;;;;;7296516;19;20193;-78
2023/05/09 00:51:59;;;;;;;13.13;8.23;;;16.00;99.90;;;;;;7307245;19;20200;-78
2023/05/09 00:54:25;;;;;;;15.57;7.87;;;16.00;99.90;;;;;;7288502;19;20181;-79
2023/05/09 00:56:51;;;;;;;14.80;8.20;;;16.00;99.90;;;;;;7288553;19;20700;-79
2023/05/09 00:59:17;;;;;;;15.27;8.60;;;16.10;99.90;;;;;;7287645;19;20197;-78
2023/05/09 01:01:44;;;;;;;14.83;8.97;;;16.10;99.90;;;;;;7287002;19;20196;-78
2023/05/09 01:04:11;;;;;;;16.40;8.70;;;16.10;99.90;;;;;;7287100;19;20199;-79
2023/05/09 01:06:43;;;;;;;14.47;8.63;;;16.10;99.90;;;;;;7287243;19;20269;-79
2023/05/09 01:09:51;;;;;;;16.00;8.53;;;16.10;99.90;;;;;;7287864;19;20218;-78
2023/05/09 01:12:29;;;;;;;16.80;8.83;;;16.10;99.90;;;;;;7183799;19;2004440;-78
2023/05/09 01:15:26;;;;;;;18.27;9.00;;;16.10;99.90;;;;;;7288419;19;20193;-79
2023/05/09 01:18:01;;;;;;;13.60;8.30;;;16.00;99.90;;;;;;7185683;19;2004640;-79
2023/05/09 01:20:44;;;;;;;15.50;7.97;;;16.00;99.90;;;;;;7287600;19;20571;-79
2023/05/09 01:23:35;;;;;;;13.33;8.53;;;16.00;99.90;;;;;;7184638;19;2004421;-78
2023/05/09 01:26:25;;;;;;;17.53;8.17;;;15.90;99.90;;;;;;7288286;19;20264;-78
2023/05/09 01:29:07;;;;;;;15.10;8.57;;;15.90;99.90;;;;;;7185201;19;2004585;-79
2023/05/09 01:31:38;;;;;;;14.30;8.60;;;15.90;99.90;;;;;;7270008;19;20183;-77
2023/05/09 01:34:05;;;;;;;15.47;7.87;;;15.80;99.90;;;;;;7287887;19;20203;-77
2023/05/09 01:36:33;;;;;;;12.63;8.23;;;15.90;99.90;;;;;;7308681;19;20191;-78
2023/05/09 01:39:01;;;;;;;14.93;7.83;;;15.70;99.90;;;;;;7286860;19;20197;-78
2023/05/09 01:41:30;;;;;;;14.00;8.07;;;15.60;99.90;;;;;;7286323;19;20214;-77
2023/05/09 01:43:59;;;;;;;13.63;8.27;;;15.50;99.90;;;;;;7286970;19;20526;-78
2023/05/09 01:46:27;;;;;;;14.50;7.97;;;15.50;99.90;;;;;;7285359;19;20564;-78
2023/05/09 01:48:54;;;;;;;15.93;7.67;;;15.50;99.90;;;;;;7286488;19;20186;-79
2023/05/09 01:51:20;;;;;;;14.57;7.87;;;15.50;99.90;;;;;;7286082;19;20198;-78
2023/05/09 01:53:49;;;;;;;15.20;8.07;;;15.60;99.90;;;;;;7286014;19;20192;-78
2023/05/09 01:56:16;;;;;;;15.03;7.87;;;15.60;99.90;;;;;;7286200;19;20188;-78
2023/05/09 01:58:44;;;;;;;15.93;8.17;;;15.60;99.90;;;;;;7283827;19;20218;-78
2023/05/09 02:01:10;;;;;;;12.93;7.60;;;15.50;99.90;;;;;;7285476;19;20187;-78
2023/05/09 02:03:38;;;;;;;16.83;8.50;;;15.40;99.90;;;;;;7287017;19;20262;-78
2023/05/09 02:06:04;;;;;;;15.10;8.40;;;15.40;99.90;;;;;;7288883;19;20189;-79
2023/05/09 02:08:32;;;;;;;12.80;7.93;;;15.40;99.90;;;;;;7308354;19;20533;-79
2023/05/09 02:10:59;;;;;;;14.30;8.27;;;15.40;99.90;;;;;;7287786;19;20187;-79
2023/05/09 02:13:25;;;;;;;16.50;7.90;;;15.40;99.90;;;;;;7285249;19;20177;-78
2023/05/09 02:15:51;;;;;;;15.30;8.27;;;15.30;99.90;;;;;;7286030;19;20549;-78
2023/05/09 02:18:17;;;;;;;16.23;8.80;;;15.30;99.90;;;;;;7285970;19;20184;-78
2023/05/09 02:20:43;;;;;;;13.67;8.23;;;15.30;99.90;;;;;;7285655;19;20200;-78
2023/05/09 02:23:10;;;;;;;14.83;8.40;;;15.20;99.90;;;;;;7284875;19;20184;-79
2023/05/09 02:25:37;;;;;;;16.10;8.60;;;15.30;99.90;;;;;;7283983;19;20191;-79
2023/05/09 02:28:06;;;;;;;15.50;8.70;;;15.40;99.90;;;;;;7284651;19;20187;-78
2023/05/09 02:30:37;;;;;;;17.93;9.40;;;15.40;99.90;;;;;;7307277;19;20182;-78
2023/05/09 02:33:06;;;;;;;17.10;9.17;;;15.40;99.90;;;;;;7270942;19;20193;-78
2023/05/09 02:35:33;;;;;;;18.53;9.00;;;15.40;99.90;;;;;;7310339;19;20183;-78
2023/05/09 02:37:59;;;;;;;16.33;9.30;;;15.30;99.90;;;;;;7313564;19;20552;-78
2023/05/09 02:40:26;;;;;;;16.60;9.30;;;15.40;99.90;;;;;;7285883;19;20728;-79
2023/05/09 02:42:53;;;;;;;17.77;9.03;;;15.40;99.90;;;;;;7285855;19;20204;-79
2023/05/09 02:45:18;;;;;;;17.20;8.37;;;15.40;99.90;;;;;;7284733;19;20191;-79
2023/05/09 02:47:44;;;;;;;15.93;9.33;;;15.40;99.90;;;;;;7285407;19;20531;-79
2023/05/09 02:50:10;;;;;;;18.43;9.23;;;15.40;99.90;;;;;;7284573;19;20196;-78
2023/05/09 02:52:39;;;;;;;15.50;9.00;;;15.50;99.90;;;;;;7282352;19;20210;-78
2023/05/09 02:55:06;;;;;;;16.70;9.37;;;15.50;99.90;;;;;;7284828;19;20207;-78
2023/05/09 02:57:35;;;;;;;15.57;9.00;;;15.50;99.90;;;;;;7284267;19;20190;-78
2023/05/09 03:00:02;;;;;;;18.37;8.13;;;15.50;99.90;;;;;;7304963;19;20186;-79
2023/05/09 03:02:29;;;;;;;15.77;8.40;;;15.50;99.90;;;;;;7284368;19;20240;-78
2023/05/09 03:04:56;;;;;;;14.53;8.20;;;15.60;99.90;;;;;;7283040;19;20191;-79
2023/05/09 03:07:22;;;;;;;15.80;8.77;;;15.70;99.90;;;;;;7281479;19;20193;-78
2023/05/09 03:09:50;;;;;;;13.70;8.63;;;15.80;99.90;;;;;;7282829;19;20192;-78
2023/05/09 03:12:16;;;;;;;15.70;8.30;;;15.90;99.90;;;;;;7280584;19;20197;-78
2023/05/09 03:14:42;;;;;;;13.23;7.77;;;15.80;99.90;;;;;;7286630;19;20542;-78
2023/05/09 03:17:08;;;;;;;14.50;8.03;;;15.70;99.90;;;;;;7289331;19;20196;-78
2023/05/09 03:19:35;;;;;;;18.57;8.07;;;15.60;99.90;;;;;;7287873;19;20559;-78
2023/05/09 03:22:01;;;;;;;15.27;8.23;;;15.60;99.90;;;;;;7311584;19;20201;-78
2023/05/09 03:24:29;;;;;;;15.60;8.43;;;15.80;99.90;;;;;;7289902;19;20188;-79
2023/05/09 03:26:55;;;;;;;16.93;8.27;;;15.70;99.90;;;;;;7290140;19;20295;-79
2023/05/09 03:29:21;;;;;;;15.70;7.77;;;15.70;99.90;;;;;;7292056;19;20279;-78
2023/05/09 03:31:47;;;;;;;14.20;8.67;;;15.70;99.90;;;;;;7290550;19;20203;-79
2023/05/09 03:34:13;;;;;;;16.10;8.40;;;15.70;99.90;;;;;;7289298;19;20191;-79
2023/05/09 03:36:42;;;;;;;14.93;8.83;;;15.80;99.90;;;;;;7289590;19;20181;-78
2023/05/09 03:39:09;;;;;;;14.63;8.43;;;15.90;99.90;;;;;;7289625;19;20179;-78
2023/05/09 03:41:38;;;;;;;13.97;9.20;;;15.80;99.90;;;;;;7290083;19;20196;-78
2023/05/09 03:44:06;;;;;;;16.73;8.60;;;15.80;99.90;;;;;;7290203;19;20188;-78
2023/05/09 03:46:32;;;;;;;14.97;8.63;;;15.80;99.90;;;;;;7309440;19;20256;-78
2023/05/09 03:48:57;;;;;;;18.60;9.33;;;15.80;99.90;;;;;;7290469;19;20997;-79
2023/05/09 03:51:24;;;;;;;15.87;8.80;;;15.80;99.90;;;;;;7289871;19;20186;-78
2023/05/09 03:53:51;;;;;;;16.93;9.23;;;15.90;99.90;;;;;;7288469;19;20212;-78
2023/05/09 03:56:17;;;;;;;14.70;8.30;;;16.00;99.90;;;;;;7290090;19;20678;-78
2023/05/09 03:58:48;;;;;;;14.40;8.30;;;16.10;99.90;;;;;;7288669;19;20199;-78
2023/05/09 04:01:15;;;;;;;12.93;8.07;;;16.10;99.90;;;;;;7288926;19;20209;-77
2023/05/09 04:03:41;;;;;;;14.90;8.63;;;16.10;99.90;;;;;;7287974;19;20186;-77
2023/05/09 04:06:08;;;;;;;15.30;8.97;;;16.10;99.90;;;;;;7289142;19;20288;-77
2023/05/09 04:08:37;;;;;;;17.83;8.97;;;16.00;99.90;;;;;;7289854;19;20180;-78
2023/05/09 04:11:04;;;;;;;16.40;9.37;;;16.00;99.90;;;;;;7292889;19;20197;-78
2023/05/09 04:13:31;;;;;;;16.53;8.60;;;16.00;99.90;;;;;;7310810;19;20181;-78
2023/05/09 04:16:00;;;;;;;16.07;8.80;;;16.00;99.90;;;;;;7289914;19;20192;-78
2023/05/09 04:18:27;;;;;;;15.67;8.90;;;16.10;99.90;;;;;;7288936;19;20252;-78
2023/05/09 04:20:53;;;;;;;14.87;8.53;;;16.10;99.90;;;;;;7288689;19;20653;-79
2023/05/09 04:23:20;;;;;;;16.23;9.27;;;16.10;99.90;;;;;;7287352;19;20588;-78
2023/05/09 04:25:50;;;;;;;14.80;8.93;;;16.10;99.90;;;;;;7283028;19;20177;-79
2023/05/09 04:28:16;;;;;;;16.43;9.43;;;16.00;99.90;;;;;;7287740;19;20661;-78
2023/05/09 04:30:42;;;;;;;15.37;9.93;;;16.10;99.90;;;;;;7288317;19;20268;-78
2023/05/09 04:33:08;;;;;;;17.67;9.03;;;16.20;99.90;;;;;;7287889;19;20229;-79
2023/05/09 04:35:34;;;;;;;15.43;8.87;;;16.20;99.90;;;;;;7288990;19;20200;-79
2023/05/09 04:38:00;;;;;;;16.20;9.27;;;16.30;99.90;;;;;;7309446;19;20532;-79
2023/05/09 04:40:26;;;;;;;15.83;9.40;;;16.30;99.90;;;;;;7288780;19;20201;-78
2023/05/09 04:42:57;;;;;;;15.43;10.00;;;16.40;99.90;;;;;;7288558;19;20213;-80
2023/05/09 04:45:26;;;;;;;14.53;9.57;;;16.40;99.90;;;;;;7286750;19;20184;-78
2023/05/09 04:47:52;;;;;;;17.73;10.77;;;16.30;99.90;;;;;;7288097;19;20218;-78
2023/05/09 04:50:18;;;;;;;14.43;10.30;;;16.30;99.90;;;;;;7288845;19;20653;-79
2023/05/09 04:52:44;;;;;;;19.20;10.77;;;16.30;99.90;;;;;;7288616;19;20203;-80
2023/05/09 04:55:10;;;;;;;17.70;11.37;;;16.20;99.90;;;;;;7289488;19;20297;-79
2023/05/09 04:57:40;;;;;;;19.60;11.43;;;16.10;99.90;;;;;;7287009;19;20267;-78
2023/05/09 05:00:06;;;;;;;18.43;10.90;;;16.10;99.90;;;;;;7290312;19;20187;-78
2023/05/09 05:02:33;;;;;;;17.27;11.63;;;16.10;99.90;;;;;;7302972;19;20287;-78
2023/05/09 05:04:58;;;;;;;20.87;12.17;;;15.80;99.90;;;;;;7304204;19;20211;-77
2023/05/09 05:07:25;;;;;;;17.47;11.13;;;15.80;99.90;;;;;;7278935;19;20318;-80
2023/05/09 05:09:51;;;;;;;19.70;12.03;;;15.70;99.90;;;;;;7292917;19;20201;-80
2023/05/09 05:12:20;;;;;;;23.70;11.27;;;15.70;99.90;;;;;;7294002;19;20247;-81
2023/05/09 05:14:46;;;;;;;16.87;11.17;;;15.60;99.90;;;;;;7291060;19;20196;-82
2023/05/09 05:17:17;;;;;;;22.83;12.90;;;15.50;99.90;;;;;;7287132;19;20196;-80
2023/05/09 05:19:44;;;;;;;17.17;11.37;;;15.50;99.90;;;;;;7286708;19;20213;-80
2023/05/09 05:22:10;;;;;;;15.90;10.67;;;15.50;99.90;;;;;;7288923;19;20215;-80
2023/05/09 05:24:39;;;;;;;15.20;10.20;;;15.40;99.90;;;;;;7287154;19;20187;-80
2023/05/09 05:27:04;;;;;;;17.73;10.60;;;15.50;99.90;;;;;;7286864;19;20192;-80
2023/05/09 05:29:30;;;;;;;18.33;11.20;;;15.50;99.90;;;;;;7308791;19;20629;-80
2023/05/09 05:31:56;;;;;;;15.20;10.57;;;15.50;99.90;;;;;;7286695;19;20191;-80
2023/05/09 05:34:22;;;;;;;16.63;10.33;;;15.50;99.90;;;;;;7288018;19;21308;-80
2023/05/09 05:36:48;;;;;;;17.13;10.60;;;15.50;99.90;;;;;;7286468;19;20196;-79
2023/05/09 05:39:13;;;;;;;19.87;10.33;;;15.70;99.90;;;;;;7285999;19;20221;-79
2023/05/09 05:41:41;;;;;;;16.57;10.80;;;15.70;99.90;;;;;;7285792;19;20693;-81
2023/05/09 05:44:07;;;;;;;17.20;10.63;;;15.70;99.90;;;;;;7287283;19;20187;-79
2023/05/09 05:46:34;;;;;;;18.33;10.73;;;15.70;99.90;;;;;;7289727;19;20196;-79
2023/05/09 05:49:00;;;;;;;16.03;10.33;;;15.80;99.90;;;;;;7308643;19;20179;-80
2023/05/09 05:51:27;;;;;;;14.90;10.33;;;16.00;99.90;;;;;;7285903;19;20195;-81
2023/05/09 05:53:53;;;;;;;19.07;10.13;;;16.10;99.90;;;;;;7286580;19;20265;-80
2023/05/09 05:56:19;;;;;;;14.93;10.40;;;16.10;99.90;;;;;;7285796;19;20195;-81
2023/05/09 05:58:45;;;;;;;15.67;9.90;;;16.20;99.90;;;;;;7285594;19;20200;-80
2023/05/09 06:01:12;;;;;;;17.90;10.07;;;16.30;99.90;;;;;;7287894;19;20233;-80
2023/05/09 06:03:38;;;;;;;14.73;10.13;;;16.40;99.90;;;;;;7287058;19;20199;-80
2023/05/09 06:06:05;;;;;;;14.27;10.00;;;16.40;99.90;;;;;;7288577;19;20273;-81
2023/05/09 06:08:31;;;;;;;15.80;10.00;;;16.40;99.90;;;;;;7309794;19;20612;-81
2023/05/09 06:10:59;;;;;;;15.30;10.00;;;16.40;99.90;;;;;;7299327;19;20183;-80
2023/05/09 06:13:25;;;;;;;16.87;10.20;;;16.30;99.90;;;;;;7293631;19;20199;-80
2023/05/09 06:15:56;;;;;;;16.37;9.53;;;16.30;99.90;;;;;;7300199;19;20189;-80
2023/05/09 06:18:22;;;;;;;16.53;9.47;;;16.40;99.90;;;;;;7293454;19;20192;-80
2023/05/09 06:20:48;;;;;;;14.23;9.03;;;16.30;99.90;;;;;;7294864;19;20220;-80
2023/05/09 06:23:14;;;;;;;14.30;9.77;;;16.30;99.90;;;;;;7292063;19;20188;-82
2023/05/09 06:25:39;;;;;;;16.83;9.67;;;16.40;99.90;;;;;;7285341;19;20187;-80
2023/05/09 06:28:06;;;;;;;16.10;9.60;;;16.50;99.90;;;;;;7286417;19;20188;-80
2023/05/09 06:30:31;;;;;;;13.07;9.40;;;16.60;99.90;;;;;;7307470;19;20198;-80
2023/05/09 06:32:57;;;;;;;15.70;9.30;;;16.70;99.90;;;;;;7286582;19;20652;-80
2023/05/09 06:35:23;;;;;;;14.17;9.40;;;16.60;99.90;;;;;;7287086;19;20226;-80
2023/05/09 06:37:49;;;;;;;14.33;8.77;;;16.60;99.90;;;;;;7285800;19;20221;-80
2023/05/09 06:40:15;;;;;;;11.53;7.77;;;16.60;99.90;;;;;;7287246;19;20199;-80
2023/05/09 06:42:41;;;;;;;12.40;8.33;;;16.60;99.90;;;;;;7285549;19;20225;-80
2023/05/09 06:45:07;;;;;;;15.07;7.80;;;16.60;99.90;;;;;;7284924;19;20660;-80
2023/05/09 06:47:33;;;;;;;12.13;7.63;;;16.70;99.90;;;;;;7303188;19;20301;-80
2023/05/09 06:49:58;;;;;;;13.20;7.63;;;16.60;99.90;;;;;;7301661;19;20731;-80
2023/05/09 06:52:24;;;;;;;14.90;7.27;;;16.60;99.90;;;;;;7291092;19;20204;-80
2023/05/09 06:54:50;;;;;;;13.37;7.43;;;16.60;99.90;;;;;;7293461;19;20267;-80
2023/05/09 06:57:16;;;;;;;10.40;7.60;;;16.40;99.90;;;;;;7292306;19;20194;-80
2023/05/09 06:59:43;;;;;;;12.23;8.10;;;16.50;99.90;;;;;;7293147;19;20191;-80
2023/05/09 07:02:10;;;;;;;15.67;8.20;;;16.50;99.90;;;;;;7292469;19;20187;-80
2023/05/09 07:04:35;;;;;;;13.50;8.17;;;16.60;99.90;;;;;;7293309;19;20229;-80
2023/05/09 07:07:01;;;;;;;12.47;8.07;;;16.50;99.90;;;;;;7314081;19;20779;-80
2023/05/09 07:09:27;;;;;;;13.60;8.23;;;16.60;99.90;;;;;;7294171;19;20642;-80
2023/05/09 07:11:56;;;;;;;12.77;7.83;;;16.60;99.90;;;;;;7291180;19;20215;-80
2023/05/09 07:14:22;;;;;;;14.30;8.53;;;16.50;99.90;;;;;;7291881;19;20184;-80
2023/05/09 07:16:47;;;;;;;15.37;8.70;;;16.50;99.90;;;;;;7290360;19;20212;-80
2023/05/09 07:19:13;;;;;;;13.10;8.27;;;16.50;99.90;;;;;;7291044;19;20648;-80
2023/05/09 07:21:39;;;;;;;12.57;8.67;;;16.60;99.90;;;;;;7292086;19;20193;-80
2023/05/09 07:24:05;;;;;;;13.70;8.33;;;16.60;99.90;;;;;;7290179;19;20202;-80
2023/05/09 07:26:31;;;;;;;13.80;8.67;;;16.70;99.90;;;;;;7311879;19;20207;-80
2023/05/09 07:28:57;;;;;;;14.73;9.03;;;16.50;99.90;;;;;;7291553;19;20260;-80
2023/05/09 07:31:22;;;;;;;13.60;9.00;;;16.30;99.90;;;;;;7290815;19;20208;-80
2023/05/09 07:33:48;;;;;;;15.43;9.60;;;16.40;99.90;;;;;;7290534;19;20178;-80
2023/05/09 07:36:15;;;;;;;13.43;8.30;;;16.40;99.90;;;;;;7291094;19;20687;-80
2023/05/09 07:38:41;;;;;;;12.93;8.43;;;16.40;99.90;;;;;;7290761;19;20218;-80
2023/05/09 07:41:07;;;;;;;14.87;8.10;;;16.40;99.90;;;;;;7291183;19;20188;-80
2023/05/09 07:43:33;;;;;;;15.47;8.77;;;16.40;99.90;;;;;;7307610;19;20564;-80
2023/05/09 07:45:59;;;;;;;14.60;8.43;;;16.50;99.90;;;;;;7306847;19;20184;-80
2023/05/09 07:48:25;;;;;;;13.77;8.60;;;16.60;99.90;;;;;;7292538;19;20692;-80
2023/05/09 07:50:51;;;;;;;16.30;8.60;;;16.60;99.90;;;;;;7288965;19;20252;-80
2023/05/09 07:53:16;;;;;;;15.77;9.03;;;16.40;99.90;;;;;;7290176;19;20216;-80
2023/05/09 07:55:44;;;;;;;14.43;8.33;;;16.40;99.90;;;;;;7290225;19;20625;-80
2023/05/09 07:58:09;;;;;;;13.37;8.13;;;16.30;99.90;;;;;;7291289;19;20525;-80
2023/05/09 08:00:35;;;;;;;17.23;8.23;;;16.40;99.90;;;;;;7290126;19;20182;-80
2023/05/09 08:03:01;;;;;;;13.63;8.40;;;16.50;99.90;;;;;;7313102;19;20195;-80
2023/05/09 08:05:26;;;;;;;13.90;7.70;;;16.50;99.90;;;;;;7290249;19;20181;-80
2023/05/09 08:07:52;;;;;;;15.80;8.20;;;16.40;99.90;;;;;;7290610;19;20733;-80
2023/05/09 08:10:18;;;;;;;14.57;8.00;;;16.40;99.90;;;;;;7290722;19;20219;-80
2023/05/09 08:12:44;;;;;;;15.27;7.60;;;16.60;99.90;;;;;;7290179;19;20195;-80
2023/05/09 08:15:10;;;;;;;13.23;7.73;;;16.50;99.90;;;;;;7290113;19;20187;-80
2023/05/09 08:17:35;;;;;;;13.27;8.10;;;16.60;99.90;;;;;;7289726;19;20259;-80
2023/05/09 08:20:04;;;;;;;14.70;8.03;;;16.60;99.90;;;;;;7311112;19;20216;-80
2023/05/09 08:22:30;;;;;;;11.87;7.33;;;16.70;99.90;;;;;;7290322;19;20192;-80
2023/05/09 08:24:55;;;;;;;11.83;6.87;;;16.90;99.90;;;;;;7288474;19;20700;-80
2023/05/09 08:27:21;;;;;;;18.23;7.73;;;16.70;99.90;;;;;;7289952;19;20185;-80
2023/05/09 08:29:47;;;;;;;12.77;6.97;;;16.80;99.90;;;;;;7290626;19;20250;-80
2023/05/09 08:32:13;;;;;;;13.33;7.43;;;16.90;99.90;;;;;;7289433;19;20692;-80
2023/05/09 08:34:38;;;;;;;13.13;7.30;;;17.10;99.90;;;;;;7288755;19;20241;-80
2023/05/09 08:37:04;;;;;;;11.70;6.87;;;17.10;99.90;;;;;;7292348;19;20666;-80
2023/05/09 08:39:30;;;;;;;15.97;7.50;;;17.30;99.90;;;;;;7308386;19;20192;-80
2023/05/09 08:41:57;;;;;;;12.40;6.90;;;17.00;99.90;;;;;;7288944;19;20192;-80
2023/05/09 08:44:24;;;;;;;13.50;7.00;;;17.00;99.90;;;;;;7288579;19;20227;-80
2023/05/09 08:46:54;;;;;;;24.20;7.63;;;17.00;99.90;;;;;;7289471;19;20629;-80
2023/05/09 08:49:20;;;;;;;14.63;7.43;;;17.10;99.90;;;;;;7288897;19;20713;-80
2023/05/09 08:51:47;;;;;;;13.70;7.20;;;17.20;99.90;;;;;;7288091;19;20216;-80
2023/05/09 08:54:14;;;;;;;13.20;7.10;;;17.30;99.90;;;;;;7289035;19;20181;-80
2023/05/09 08:56:40;;;;;;;13.30;6.70;;;17.50;99.90;;;;;;7288928;19;20676;-80
2023/05/09 08:59:06;;;;;;;13.57;6.90;;;17.70;99.90;;;;;;7287239;19;20189;-80
2023/05/09 09:01:34;;;;;;;14.63;7.20;;;17.50;99.90;;;;;;7311154;19;20205;-80
2023/05/09 09:04:04;;;;;;;13.13;7.03;;;17.50;99.90;;;;;;7288415;19;20747;-80
2023/05/09 09:06:33;;;;;;;11.17;5.83;;;17.60;99.90;;;;;;7289594;19;20201;-80
2023/05/09 09:09:00;;;;;;;12.97;5.90;;;17.60;99.90;;;;;;7289326;19;20180;-81
2023/05/09 09:11:29;;;;;;;11.60;5.70;;;17.40;99.90;;;;;;7287285;19;20200;-80
2023/05/09 09:13:59;;;;;;;11.93;5.40;;;17.40;99.90;;;;;;7288789;19;20182;-80
2023/05/09 09:16:27;;;;;;;12.50;5.77;;;17.50;99.90;;;;;;7288450;19;20201;-80
2023/05/09 09:18:55;;;;;;;13.80;5.90;;;17.40;99.90;;;;;;7287432;19;20294;-80
2023/05/09 09:21:22;;;;;;;11.67;6.43;;;17.30;99.90;;;;;;7286312;19;20215;-79
2023/05/09 09:23:50;;;;;;;12.30;6.47;;;17.10;99.90;;;;;;7286601;19;20187;-80
2023/05/09 09:26:15;;;;;;;11.07;6.20;;;17.10;99.90;;;;;;7287190;19;20197;-80
2023/05/09 09:28:42;;;;;;;13.37;6.70;;;17.00;99.90;;;;;;7289890;19;20206;-78
2023/05/09 09:31:23;;;;;;;13.70;6.47;;;16.90;99.90;;;;;;7287390;19;20204;-78
2023/05/09 09:33:50;;;;;;;15.77;5.90;;;16.60;99.90;;;;;;7288022;19;20192;-78
2023/05/09 09:36:16;;;;;;;12.73;6.57;;;16.40;99.90;;;;;;7288626;19;20188;-78
2023/05/09 09:38:43;;;;;;;14.43;6.60;;;16.30;99.90;;;;;;7287701;19;20255;-78
2023/05/09 09:41:11;;;;;;;15.43;7.03;;;16.30;99.90;;;;;;7293290;19;20254;-78
2023/05/09 09:43:37;;;;;;;12.10;6.27;;;16.30;99.90;;;;;;7308773;19;20261;-77
2023/05/09 09:46:05;;;;;;;10.50;5.33;;;16.30;99.90;;;;;;7324939;19;20241;-78
2023/05/09 09:48:32;;;;;;;9.37;4.93;;;16.50;99.90;;;;;;7330564;19;20192;-78
2023/05/09 09:51:12;;;;;;;9.40;4.70;;;16.60;99.90;;;;;;7309295;19;20192;-79
2023/05/09 09:53:38;;;;;;;12.03;5.20;;;16.70;99.90;;;;;;7277763;19;20193;-79
2023/05/09 09:56:04;;;;;;;12.43;5.50;;;16.70;99.90;;;;;;7307865;19;20192;-78
2023/05/09 09:58:30;;;;;;;13.10;5.27;;;16.80;99.90;;;;;;7312877;19;20196;-79
2023/05/09 10:01:09;;;;;;;9.97;5.60;;;16.90;99.90;;;;;;7288229;19;20212;-79
2023/05/09 10:03:36;;;;;;;11.90;4.97;;;16.80;99.90;;;;;;7267472;19;20216;-78
2023/05/09 10:06:02;;;;;;;13.70;5.87;;;16.80;99.90;;;;;;7309515;19;20191;-79
2023/05/09 10:08:27;;;;;;;8.37;5.17;;;16.80;99.90;;;;;;7287560;19;20263;-79
2023/05/09 10:10:57;;;;;;;10.20;4.87;;;16.90;99.90;;;;;;7263564;19;20197;-78
2023/05/09 10:13:25;;;;;;;11.83;5.20;;;16.80;99.90;;;;;;7127821;19;20228;-79
2023/05/09 10:15:51;;;;;;;10.63;5.30;;;16.70;99.90;;;;;;7285564;19;20233;-79
2023/05/09 10:18:20;;;;;;;9.57;4.90;;;16.80;99.90;;;;;;7284754;19;20196;-77
2023/05/09 10:20:46;;;;;;;9.27;5.23;;;16.70;99.90;;;;;;7285898;19;20220;-79
2023/05/09 10:23:15;;;;;;;9.57;5.23;;;16.80;99.90;;;;;;7286480;19;20258;-79
2023/05/09 10:25:46;;;;;;;9.67;5.00;;;17.00;99.90;;;;;;7286519;19;20206;-78
2023/05/09 10:28:16;;;;;;;10.67;5.77;;;16.80;99.90;;;;;;7286649;19;20192;-78
2023/05/09 10:31:25;;;;;;;10.77;5.47;;;17.00;99.90;;;;;;7286714;19;20667;-78
2023/05/09 10:33:52;;;;;;;9.63;5.17;;;17.00;99.90;;;;;;7184970;19;2004563;-79
2023/05/09 10:36:20;;;;;;;10.83;5.47;;;17.10;99.90;;;;;;7284896;19;20185;-79
2023/05/09 10:38:47;;;;;;;12.23;4.67;;;17.10;99.90;;;;;;7285042;19;20196;-79
2023/05/09 10:41:15;;;;;;;9.07;4.97;;;17.10;99.90;;;;;;7285395;19;20189;-79
2023/05/09 10:43:42;;;;;;;10.03;5.00;;;17.20;99.90;;;;;;7284678;19;20181;-80
2023/05/09 10:46:08;;;;;;;11.47;5.47;;;17.20;99.90;;;;;;7284980;19;20188;-79
2023/05/09 10:48:36;;;;;;;9.97;5.50;;;17.10;99.90;;;;;;7297940;19;20192;-79
2023/05/09 10:51:02;;;;;;;10.17;4.67;;;17.20;99.90;;;;;;7307039;19;20187;-79
2023/05/09 10:53:49;;;;;;;14.43;5.70;;;17.00;99.90;;;;;;7285326;19;20206;-79
2023/05/09 10:56:28;;;;;;;7.37;4.20;;;16.80;99.90;;;;;;7182814;19;2004832;-79
2023/05/09 10:58:54;;;;;;;11.17;4.80;;;16.30;99.90;;;;;;7285144;19;20198;-79
2023/05/09 11:01:35;;;;;;;9.03;4.50;;;16.40;99.90;;;;;;7285607;19;20189;-79
2023/05/09 11:04:09;;;;;;;8.90;4.70;;;16.30;99.90;;;;;;7284759;19;20184;-79
2023/05/09 11:06:43;;;;;;;7.93;4.40;;;16.30;99.90;;;;;;7265363;19;20194;-79
2023/05/09 11:09:31;;;;;;;9.53;4.23;;;16.20;99.90;;;;;;7285707;19;20195;-79
2023/05/09 11:12:00;;;;;;;12.33;4.57;;;16.20;99.90;;;;;;7284293;19;20203;-79
2023/05/09 11:14:30;;;;;;;9.17;4.77;;;16.00;99.90;;;;;;7284744;19;20195;-79
2023/05/09 11:16:57;;;;;;;11.87;6.40;;;15.90;99.90;;;;;;7284040;19;20555;-79
2023/05/09 11:19:57;;;;;;;12.90;6.63;;;15.90;99.90;;;;;;7285047;19;20194;-80
2023/05/09 11:22:36;;;;;;;13.00;7.63;;;16.00;99.90;;;;;;7181397;19;2004469;-79
2023/05/09 11:25:11;;;;;;;14.00;7.30;;;16.40;99.90;;;;;;7284589;19;20247;-80
2023/05/09 11:27:46;;;;;;;14.40;7.43;;;16.60;99.90;;;;;;7279020;19;20192;-79
2023/05/09 11:30:17;;;;;;;13.47;6.97;;;16.90;99.90;;;;;;7287014;19;20204;-79
2023/05/09 11:32:54;;;;;;;12.93;6.90;;;17.10;99.90;;;;;;7286837;19;20359;-79
2023/05/09 11:35:21;;;;;;;11.67;6.37;;;17.30;99.90;;;;;;7288340;19;20316;-79
2023/05/09 11:37:58;;;;;;;13.07;6.63;;;17.40;99.90;;;;;;7292855;19;20185;-79
2023/05/09 11:40:26;;;;;;;10.80;6.47;;;17.40;99.90;;;;;;7293585;19;20182;-79
2023/05/09 11:42:54;;;;;;;13.40;6.40;;;17.30;99.90;;;;;;7293843;19;20225;-79
2023/05/09 11:45:21;;;;;;;11.30;6.03;;;17.20;99.90;;;;;;7298101;19;20199;-82
2023/05/09 11:47:48;;;;;;;9.13;5.30;;;17.20;99.90;;;;;;7291122;19;20193;-82
2023/05/09 11:50:15;;;;;;;9.13;4.47;;;17.00;99.90;;;;;;7291569;19;20193;-82
2023/05/09 11:52:42;;;;;;;9.80;5.07;;;16.80;99.90;;;;;;7291328;19;20195;-82
2023/05/09 11:55:12;;;;;;;8.57;4.13;;;17.00;99.90;;;;;;7290374;19;20255;-82
2023/05/09 11:57:41;;;;;;;5.27;2.47;;;17.00;99.90;;;;;;7291347;19;20197;-82
2023/05/09 12:00:09;;;;;;;7.00;2.40;;;17.00;99.90;;;;;;7290957;19;20194;-82
2023/05/09 12:02:36;;;;;;;3.13;1.90;;;16.90;99.90;;;;;;7295111;19;20195;-82
2023/05/09 12:05:21;;;;;;;4.20;1.70;;;16.90;99.90;;;;;;7310126;19;20289;-82
2023/05/09 12:07:48;;;;;;;5.30;1.70;;;16.70;99.90;;;;;;7187376;19;2004725;-82
2023/05/09 12:10:18;;;;;;;9.27;2.10;;;16.50;99.90;;;;;;7290350;19;20191;-82
2023/05/09 12:12:48;;;;;;;2.53;1.60;;;16.40;99.90;;;;;;7288761;19;20219;-82
2023/05/09 12:15:15;;;;;;;4.70;2.30;;;16.30;99.90;;;;;;7289569;19;20190;-82
2023/05/09 12:17:42;;;;;;;7.60;2.00;;;16.20;99.90;;;;;;7290809;19;20662;-82
2023/05/09 12:20:09;;;;;;;10.67;2.50;;;16.10;99.90;;;;;;7289231;19;20188;-82
2023/05/09 12:22:38;;;;;;;5.73;2.80;;;16.10;99.90;;;;;;7295406;19;20195;-82
2023/05/09 12:25:06;;;;;;;5.50;2.17;;;16.20;99.90;;;;;;7301363;19;20683;-81
2023/05/09 12:27:34;;;;;;;8.10;2.50;;;16.40;99.90;;;;;;7312208;19;20252;-82
2023/05/09 12:30:00;;;;;;;7.13;2.77;;;16.40;99.90;;;;;;7295431;19;20187;-82
2023/05/09 12:32:31;;;;;;;6.23;2.87;;;16.50;99.90;;;;;;7292823;19;20189;-82
2023/05/09 12:35:01;;;;;;;5.97;2.60;;;16.50;99.90;;;;;;7289812;19;20192;-82
2023/05/09 12:37:33;;;;;;;10.20;2.77;;;16.40;99.90;;;;;;7291631;19;20540;-82
2023/05/09 12:40:06;;;;;;;5.77;2.30;;;16.60;99.90;;;;;;7291445;19;20212;-82